createdAt,value
2017-11-07T00:02:25.654Z,10.70
2017-11-07T00:04:53.261Z,10.90
2017-11-07T00:07:20.690Z,11.93
2017-11-07T00:09:48.124Z,14.30
2017-11-07T00:12:15.614Z,15.90
2017-11-07T00:14:43.070Z,17.27
2017-11-07T00:17:10.510Z,20.83
2017-11-07T00:19:37.952Z,20.52
2017-11-07T00:22:05.393Z,19.37
2017-11-07T00:24:33.624Z,21.12
2017-11-07T00:27:01.071Z,21.48
2017-11-07T00:29:28.506Z,23.27
2017-11-07T00:31:55.954Z,24.23
2017-11-07T00:34:23.442Z,24.70
2017-11-07T00:36:50.881Z,24.93
2017-11-07T00:39:18.320Z,25.42
2017-11-07T00:41:45.807Z,26.45
2017-11-07T00:44:13.255Z,26.33
2017-11-07T00:46:40.710Z,29.33
2017-11-07T00:49:08.148Z,29.55
2017-11-07T00:51:35.575Z,28.95
2017-11-07T00:54:03.799Z,29.27
2017-11-07T00:56:31.248Z,27.35
2017-11-07T00:58:58.703Z,28.90
2017-11-07T01:01:26.146Z,26.65
2017-11-07T01:03:53.590Z,27.45
2017-11-07T01:06:21.776Z,26.47
2017-11-07T01:08:49.207Z,26.00
2017-11-07T01:11:16.634Z,29.00
2017-11-07T01:13:44.284Z,27.85
2017-11-07T01:16:11.789Z,26.25
2017-11-07T01:18:40.023Z,25.98
2017-11-07T01:21:07.475Z,26.00
2017-11-07T01:23:34.951Z,26.55
2017-11-07T01:26:02.490Z,26.70
2017-11-07T01:28:29.958Z,25.92
2017-11-07T01:30:57.468Z,25.20
2017-11-07T01:33:25.060Z,27.80
2017-11-07T01:35:52.523Z,25.25
2017-11-07T01:38:19.976Z,25.20
2017-11-07T01:40:47.432Z,25.00
2017-11-07T01:43:14.903Z,25.42
2017-11-07T01:45:42.542Z,23.75
2017-11-07T01:48:09.998Z,26.90
2017-11-07T01:50:37.447Z,24.08
2017-11-07T01:53:04.887Z,25.30
2017-11-07T01:55:32.387Z,24.17
2017-11-07T01:57:59.827Z,24.80
2017-11-07T02:00:27.291Z,27.05
2017-11-07T02:02:54.719Z,26.55
2017-11-07T02:05:22.162Z,26.95
2017-11-07T02:07:49.657Z,24.70
2017-11-07T02:10:17.119Z,25.00
2017-11-07T02:12:44.544Z,24.27
2017-11-07T02:15:12.023Z,27.02
2017-11-07T02:17:39.450Z,23.67
2017-11-07T02:20:06.887Z,23.08
2017-11-07T02:22:35.112Z,23.08
2017-11-07T02:25:02.551Z,22.70
2017-11-07T02:27:29.979Z,24.08
2017-11-07T02:29:57.427Z,23.55
2017-11-07T02:32:25.625Z,23.95
2017-11-07T02:34:53.055Z,23.00
2017-11-07T02:37:20.541Z,24.93
2017-11-07T02:39:48.012Z,23.90
2017-11-07T02:42:15.471Z,24.93
2017-11-07T02:44:42.927Z,25.90
2017-11-07T02:47:10.364Z,25.15
2017-11-07T02:49:37.830Z,22.62
2017-11-07T02:52:05.298Z,23.40
2017-11-07T02:54:32.727Z,26.42
2017-11-07T02:57:00.199Z,23.40
2017-11-07T02:59:27.628Z,24.25
2017-11-07T03:01:55.067Z,23.87
2017-11-07T03:04:23.309Z,24.80
2017-11-07T03:06:50.752Z,25.83
2017-11-07T03:09:18.219Z,27.55
2017-11-07T03:11:47.163Z,28.40
2017-11-07T03:14:14.600Z,27.73
2017-11-07T03:16:42.831Z,29.30
2017-11-07T03:19:10.279Z,29.55
2017-11-07T03:21:37.747Z,29.83
2017-11-07T03:24:05.190Z,29.70
2017-11-07T03:26:32.651Z,28.15
2017-11-07T03:29:00.110Z,29.85
2017-11-07T03:31:27.560Z,31.70
2017-11-07T03:33:54.999Z,28.10
2017-11-07T03:36:22.435Z,30.12
2017-11-07T03:38:50.651Z,26.30
2017-11-07T03:41:18.180Z,27.52
2017-11-07T03:43:45.666Z,27.55
2017-11-07T03:46:13.097Z,24.70
2017-11-07T03:48:40.539Z,25.52
2017-11-07T03:51:08.012Z,24.90
2017-11-07T03:53:35.487Z,27.27
2017-11-07T03:56:02.935Z,26.67
2017-11-07T03:58:30.376Z,25.02
2017-11-07T04:00:57.807Z,25.90
2017-11-07T04:03:25.414Z,23.95
2017-11-07T04:05:52.862Z,23.40
2017-11-07T04:08:20.403Z,25.73
2017-11-07T04:10:47.860Z,27.00
2017-11-07T04:13:15.342Z,28.23
2017-11-07T04:15:42.799Z,26.87
2017-11-07T04:18:10.275Z,26.20
2017-11-07T04:20:37.767Z,27.27
2017-11-07T04:23:06.072Z,26.77
2017-11-07T04:25:33.587Z,26.50
2017-11-07T04:28:02.578Z,26.20
2017-11-07T04:30:30.798Z,26.92
2017-11-07T04:32:58.379Z,27.20
2017-11-07T04:35:25.847Z,24.33
2017-11-07T04:37:53.290Z,26.30
2017-11-07T04:40:20.729Z,23.70
2017-11-07T04:42:48.185Z,25.77
2017-11-07T04:45:15.673Z,27.20
2017-11-07T04:47:43.218Z,26.27
2017-11-07T04:50:10.674Z,28.60
2017-11-07T04:52:38.123Z,27.77
2017-11-07T04:55:05.580Z,25.83
2017-11-07T04:57:33.026Z,28.35
2017-11-07T05:00:00.454Z,26.80
2017-11-07T05:02:27.954Z,26.33
2017-11-07T05:04:55.371Z,27.03
2017-11-07T05:07:22.807Z,24.02
2017-11-07T05:12:41.746Z,23.27
2017-11-07T05:15:09.194Z,22.70
2017-11-07T05:17:36.646Z,24.23
2017-11-07T05:20:04.072Z,22.62
2017-11-07T05:22:31.508Z,23.40
2017-11-07T05:24:59.829Z,25.73
2017-11-07T05:27:27.307Z,25.45
2017-11-07T05:29:55.540Z,26.58
2017-11-07T05:32:23.048Z,24.67
2017-11-07T05:34:50.479Z,25.80
2017-11-07T05:37:17.927Z,26.00
2017-11-07T05:39:45.398Z,26.65
2017-11-07T05:42:12.882Z,26.52
2017-11-07T05:44:40.410Z,27.60
2017-11-07T05:47:07.875Z,26.00
2017-11-07T05:49:35.391Z,25.48
2017-11-07T05:52:02.866Z,25.20
2017-11-07T05:54:30.315Z,25.10
2017-11-07T05:56:57.750Z,24.73
2017-11-07T05:59:25.243Z,25.97
2017-11-07T06:01:52.692Z,24.50
2017-11-07T06:04:20.127Z,22.80
2017-11-07T06:06:47.563Z,22.77
2017-11-07T06:09:15.974Z,23.35
2017-11-07T06:11:43.394Z,25.08
2017-11-07T06:14:11.701Z,24.27
2017-11-07T06:16:39.175Z,23.70
2017-11-07T06:19:06.618Z,23.10
2017-11-07T06:21:34.175Z,21.17
2017-11-07T06:24:01.614Z,21.58
2017-11-07T06:26:29.063Z,21.25
2017-11-07T06:28:56.584Z,20.85
2017-11-07T06:31:24.053Z,19.48
2017-11-07T06:33:51.480Z,19.75
2017-11-07T06:36:18.944Z,20.85
2017-11-07T06:38:46.396Z,21.30
2017-11-07T06:41:13.837Z,21.02
2017-11-07T06:43:41.287Z,20.77
2017-11-07T06:46:08.740Z,22.47
2017-11-07T06:48:36.297Z,21.10
2017-11-07T06:51:03.735Z,21.03
2017-11-07T06:53:31.168Z,20.80
2017-11-07T06:55:58.602Z,29.25
2017-11-07T06:58:26.040Z,22.75
2017-11-07T07:00:53.601Z,22.37
2017-11-07T07:03:21.140Z,22.35
2017-11-07T07:05:48.611Z,21.95
2017-11-07T07:08:16.074Z,21.90
2017-11-07T07:10:43.528Z,22.23
2017-11-07T07:13:10.991Z,20.83
2017-11-07T07:15:38.423Z,21.10
2017-11-07T07:18:05.874Z,22.23
2017-11-07T07:20:33.458Z,21.73
2017-11-07T07:23:00.967Z,21.90
2017-11-07T07:25:29.367Z,23.02
2017-11-07T07:27:56.846Z,21.50
2017-11-07T07:30:24.386Z,21.15
2017-11-07T07:32:51.821Z,21.02
2017-11-07T07:35:19.268Z,21.70
2017-11-07T07:37:47.491Z,21.50
2017-11-07T07:40:14.938Z,21.27
2017-11-07T07:42:42.448Z,20.17
2017-11-07T07:45:10.664Z,21.02
2017-11-07T07:47:38.219Z,21.10
2017-11-07T07:50:05.715Z,21.90
2017-11-07T07:52:33.188Z,20.88
2017-11-07T07:55:00.832Z,23.67
2017-11-07T07:57:28.278Z,20.23
2017-11-07T07:59:55.807Z,22.95
2017-11-07T08:02:23.302Z,23.67
2017-11-07T08:04:50.768Z,23.12
2017-11-07T08:07:18.307Z,22.00
2017-11-07T08:09:45.755Z,20.65
2017-11-07T08:12:13.214Z,19.42
2017-11-07T08:14:40.747Z,18.90
2017-11-07T08:17:08.162Z,20.62
2017-11-07T08:19:36.375Z,19.90
2017-11-07T08:22:03.807Z,21.37
2017-11-07T08:24:32.013Z,20.45
2017-11-07T08:26:59.451Z,19.23
2017-11-07T08:29:26.897Z,20.48
2017-11-07T08:31:54.335Z,20.08
2017-11-07T08:34:22.580Z,19.45
2017-11-07T08:36:50.210Z,22.60
2017-11-07T08:39:17.768Z,21.87
2017-11-07T08:41:45.361Z,22.60
2017-11-07T08:44:12.852Z,23.30
2017-11-07T08:46:41.197Z,24.77
2017-11-07T08:49:08.655Z,24.92
2017-11-07T08:51:36.115Z,23.00
2017-11-07T08:54:03.569Z,26.40
2017-11-07T08:56:31.073Z,27.17
2017-11-07T08:58:58.518Z,30.77
2017-11-07T09:01:26.778Z,30.67
2017-11-07T09:03:54.226Z,30.77
2017-11-07T09:06:21.881Z,32.60
2017-11-07T09:08:49.314Z,33.55
2017-11-07T09:11:16.750Z,30.52
2017-11-07T09:13:44.254Z,27.55
2017-11-07T09:16:11.692Z,25.20
2017-11-07T09:18:39.142Z,24.42
2017-11-07T09:21:06.586Z,26.40
2017-11-07T09:23:34.015Z,27.07
2017-11-07T09:26:01.460Z,25.10
2017-11-07T09:28:29.673Z,23.85
2017-11-07T09:30:57.119Z,20.58
2017-11-07T09:33:24.606Z,20.10
2017-11-07T09:35:52.255Z,19.95
2017-11-07T09:38:19.714Z,21.50
2017-11-07T09:40:47.351Z,22.05
2017-11-07T09:43:14.806Z,24.17
2017-11-07T09:45:42.259Z,22.37
2017-11-07T09:48:09.703Z,23.98
2017-11-07T09:50:37.190Z,25.97
2017-11-07T09:53:04.666Z,25.52
2017-11-07T09:55:32.114Z,25.92
2017-11-07T09:57:59.548Z,24.60
2017-11-07T10:00:26.990Z,25.67
2017-11-07T10:02:54.442Z,24.12
2017-11-07T10:05:21.903Z,24.02
2017-11-07T10:07:49.401Z,25.75
2017-11-07T10:10:17.417Z,25.08
2017-11-07T10:12:44.861Z,24.90
2017-11-07T10:15:13.098Z,22.27
2017-11-07T10:17:40.539Z,20.98
2017-11-07T10:20:07.973Z,20.30
2017-11-07T10:22:35.459Z,19.33
2017-11-07T10:25:02.908Z,19.73
2017-11-07T10:27:30.399Z,20.15
2017-11-07T10:29:57.927Z,19.65
2017-11-07T10:32:25.394Z,19.40
2017-11-07T10:34:52.924Z,17.90
2017-11-07T10:37:20.387Z,15.98
2017-11-07T10:39:47.884Z,16.95
2017-11-07T10:42:15.418Z,17.23
2017-11-07T10:44:42.913Z,15.18
2017-11-07T10:47:11.119Z,13.88
2017-11-07T10:49:38.642Z,14.65
2017-11-07T10:52:06.164Z,15.15
2017-11-07T10:54:33.612Z,14.70
2017-11-07T10:57:01.056Z,14.10
2017-11-07T10:59:28.530Z,17.00
2017-11-07T11:01:55.983Z,17.10
2017-11-07T11:04:23.459Z,16.30
2017-11-07T11:06:50.919Z,15.60
2017-11-07T11:09:18.446Z,15.75
2017-11-07T11:11:45.875Z,16.42
2017-11-07T11:14:13.371Z,16.60
2017-11-07T11:16:40.815Z,17.33
2017-11-07T11:19:08.278Z,19.25
2017-11-07T11:21:35.745Z,20.48
2017-11-07T11:24:03.302Z,20.20
2017-11-07T11:26:30.754Z,21.12
2017-11-07T11:28:58.430Z,18.95
2017-11-07T11:31:25.872Z,20.15
2017-11-07T11:33:53.303Z,20.25
2017-11-07T11:36:20.735Z,18.00
2017-11-07T11:38:48.175Z,20.77
2017-11-07T11:41:15.806Z,19.73
2017-11-07T11:43:43.238Z,18.67
2017-11-07T11:46:10.715Z,18.37
2017-11-07T11:48:38.167Z,17.48
2017-11-07T11:51:05.738Z,18.00
2017-11-07T11:53:33.190Z,18.10
2017-11-07T11:56:00.754Z,18.17
2017-11-07T11:58:28.213Z,17.37
2017-11-07T12:00:55.668Z,17.50
2017-11-07T12:03:23.102Z,17.40
2017-11-07T12:05:50.579Z,16.85
2017-11-07T12:08:18.013Z,17.40
2017-11-07T12:10:45.548Z,17.70
2017-11-07T12:13:13.019Z,16.35
2017-11-07T12:15:40.494Z,17.20
2017-11-07T12:18:07.943Z,16.90
2017-11-07T12:20:35.379Z,17.05
2017-11-07T12:23:02.878Z,17.73
2017-11-07T12:25:30.294Z,17.70
2017-11-07T12:27:57.777Z,17.42
2017-11-07T12:30:26.495Z,18.08
2017-11-07T12:32:53.982Z,17.40
2017-11-07T12:35:21.414Z,16.77
2017-11-07T12:37:49.626Z,16.52
2017-11-07T12:40:17.619Z,17.40
2017-11-07T12:42:45.979Z,16.70
2017-11-07T12:45:13.442Z,17.65
2017-11-07T12:47:40.900Z,17.30
2017-11-07T12:50:20.168Z,17.92
2017-11-07T12:52:47.603Z,18.58
2017-11-07T12:55:15.051Z,15.90
2017-11-07T12:57:42.479Z,16.35
2017-11-07T13:00:09.923Z,17.83
2017-11-07T13:02:40.078Z,17.48
2017-11-07T13:05:07.507Z,15.55
2017-11-07T13:07:35.598Z,15.35
2017-11-07T13:10:03.039Z,15.30
2017-11-07T13:12:30.484Z,15.73
2017-11-07T13:14:58.079Z,15.52
2017-11-07T13:17:25.598Z,16.00
2017-11-07T13:19:53.107Z,15.18
2017-11-07T13:22:20.547Z,15.80
2017-11-07T13:24:47.986Z,16.55
2017-11-07T13:27:16.223Z,16.67
2017-11-07T13:29:44.455Z,16.90
2017-11-07T13:32:11.892Z,17.40
2017-11-07T13:34:39.327Z,17.35
2017-11-07T13:37:07.559Z,16.05
2017-11-07T13:39:36.342Z,15.27
2017-11-07T13:42:04.699Z,16.05
2017-11-07T13:44:32.143Z,17.62
2017-11-07T13:46:59.600Z,17.20
2017-11-07T13:49:27.056Z,14.50
2017-11-07T13:51:54.538Z,15.00
2017-11-07T13:54:21.969Z,14.35
2017-11-07T13:56:52.213Z,15.20
2017-11-07T13:59:19.792Z,15.75
2017-11-07T14:01:47.239Z,13.95
2017-11-07T14:04:14.695Z,14.60
2017-11-07T14:06:42.146Z,14.25
2017-11-07T14:09:09.581Z,13.80
2017-11-07T14:11:37.054Z,13.62
2017-11-07T14:14:04.539Z,14.25
2017-11-07T14:16:31.988Z,14.15
2017-11-07T14:18:59.633Z,15.18
2017-11-07T14:21:27.066Z,15.30
2017-11-07T14:23:56.359Z,16.55
2017-11-07T14:26:23.832Z,15.10
2017-11-07T14:28:51.425Z,14.82
2017-11-07T14:31:19.638Z,15.07
2017-11-07T14:33:47.073Z,15.50
2017-11-07T14:36:14.599Z,15.98
2017-11-07T14:38:42.043Z,15.38
2017-11-07T14:41:10.296Z,14.85
2017-11-07T14:43:37.775Z,16.30
2017-11-07T14:46:05.234Z,15.52
2017-11-07T14:48:32.674Z,15.40
2017-11-07T14:51:00.099Z,15.35
2017-11-07T14:53:27.605Z,14.05
2017-11-07T14:55:55.134Z,13.05
2017-11-07T14:58:22.874Z,14.45
2017-11-07T15:00:50.415Z,14.02
2017-11-07T15:03:18.683Z,14.00
2017-11-07T15:05:46.123Z,12.82
2017-11-07T15:08:13.655Z,12.80
2017-11-07T15:10:41.151Z,11.90
2017-11-07T15:13:09.611Z,12.60
2017-11-07T15:15:37.054Z,11.83
2017-11-07T15:18:04.491Z,12.82
2017-11-07T15:20:32.637Z,14.65
2017-11-07T15:23:00.146Z,13.48
2017-11-07T15:25:27.680Z,13.10
2017-11-07T15:27:55.165Z,13.35
2017-11-07T15:30:22.637Z,12.40
2017-11-07T15:32:50.179Z,13.00
2017-11-07T15:35:17.627Z,13.53
2017-11-07T15:37:45.192Z,12.20
2017-11-07T15:40:12.640Z,11.87
2017-11-07T15:42:40.107Z,11.23
2017-11-07T15:45:07.555Z,11.25
2017-11-07T15:47:35.013Z,11.70
2017-11-07T15:50:02.652Z,12.50
2017-11-07T15:52:30.107Z,12.75
2017-11-07T15:54:57.575Z,12.10
2017-11-07T15:57:25.043Z,13.13
2017-11-07T15:59:52.470Z,12.20
2017-11-07T16:02:19.944Z,14.57
2017-11-07T16:04:47.387Z,14.65
2017-11-07T16:07:14.879Z,14.80
2017-11-07T16:09:42.329Z,15.10
2017-11-07T16:12:09.860Z,18.23
2017-11-07T16:14:37.317Z,15.07
2017-11-07T16:17:04.875Z,15.05
2017-11-07T16:19:32.334Z,15.18
2017-11-07T16:21:59.779Z,15.13
2017-11-07T16:24:27.235Z,15.10
2017-11-07T16:26:54.701Z,16.67
2017-11-07T16:29:22.133Z,15.80
2017-11-07T16:31:49.702Z,16.15
2017-11-07T16:34:17.916Z,15.13
2017-11-07T16:36:45.371Z,17.50
2017-11-07T16:39:12.816Z,15.05
2017-11-07T16:41:40.316Z,16.25
2017-11-07T16:44:07.853Z,15.75
2017-11-07T16:46:35.299Z,14.57
2017-11-07T16:49:02.747Z,14.95
2017-11-07T16:51:30.205Z,16.37
2017-11-07T16:53:57.683Z,42.33
2017-11-07T16:56:25.110Z,57.97
2017-11-07T16:58:52.551Z,16.60
2017-11-07T17:01:20.091Z,38.53
2017-11-07T17:03:47.506Z,16.90
2017-11-07T17:06:14.959Z,15.68
2017-11-07T17:08:42.409Z,16.00
2017-11-07T17:11:09.867Z,15.30
2017-11-07T17:13:37.350Z,19.33
2017-11-07T17:16:04.859Z,18.10
2017-11-07T17:18:32.343Z,15.60
2017-11-07T17:20:59.898Z,16.95
2017-11-07T17:23:27.386Z,15.00
2017-11-07T17:25:56.422Z,15.93
2017-11-07T17:28:23.868Z,14.90
2017-11-07T17:30:51.322Z,15.57
2017-11-07T17:33:18.755Z,18.65
2017-11-07T17:35:46.234Z,16.37
2017-11-07T17:38:13.908Z,17.40
2017-11-07T17:41:03.268Z,17.40
2017-11-07T17:43:31.546Z,17.37
2017-11-07T17:45:59.008Z,17.08
2017-11-07T17:48:26.472Z,16.90
2017-11-07T17:50:53.934Z,18.43
2017-11-07T17:53:21.406Z,16.90
2017-11-07T17:55:48.839Z,17.20
2017-11-07T17:58:16.277Z,18.52
2017-11-07T18:00:43.736Z,17.90
2017-11-07T18:03:11.307Z,19.50
2017-11-07T18:05:38.755Z,16.23
2017-11-07T18:08:06.189Z,15.00
2017-11-07T18:10:33.696Z,14.95
2017-11-07T18:13:01.267Z,15.00
2017-11-07T18:15:28.716Z,16.00
2017-11-07T18:17:56.173Z,16.10
2017-11-07T18:20:23.618Z,14.90
2017-11-07T18:22:51.098Z,16.42
2017-11-07T18:25:18.588Z,16.50
2017-11-07T18:27:46.284Z,18.60
2017-11-07T18:30:13.748Z,16.98
2017-11-07T18:32:41.283Z,18.35
2017-11-07T18:35:08.768Z,17.27
2017-11-07T18:37:36.205Z,18.23
2017-11-07T18:40:03.635Z,18.03
2017-11-07T18:42:31.075Z,18.33
2017-11-07T18:44:58.975Z,16.75
2017-11-07T18:47:26.452Z,18.08
2017-11-07T18:49:53.943Z,18.02
2017-11-07T18:52:22.175Z,18.87
2017-11-07T18:54:49.632Z,17.50
2017-11-07T18:57:17.089Z,17.33
2017-11-07T18:59:44.547Z,18.27
2017-11-07T19:02:12.026Z,18.65
2017-11-07T19:04:39.539Z,17.12
2017-11-07T19:07:07.220Z,19.33
2017-11-07T19:09:34.807Z,17.50
2017-11-07T19:12:02.264Z,18.00
2017-11-07T19:14:30.481Z,18.83
2017-11-07T19:16:57.956Z,20.42
2017-11-07T19:19:25.415Z,19.42
2017-11-07T19:21:52.860Z,19.27
2017-11-07T19:24:20.406Z,16.27
2017-11-07T19:26:47.891Z,17.67
2017-11-07T19:29:15.534Z,17.50
2017-11-07T19:31:42.974Z,18.85
2017-11-07T19:34:10.548Z,17.50
2017-11-07T19:36:37.965Z,17.92
2017-11-07T19:39:05.422Z,18.60
2017-11-07T19:41:33.732Z,24.37
2017-11-07T19:44:01.203Z,20.10
2017-11-07T19:46:29.012Z,19.43
2017-11-07T19:48:56.512Z,19.00
2017-11-07T19:51:24.743Z,18.98
2017-11-07T19:53:53.222Z,19.60
2017-11-07T19:56:20.639Z,20.60
2017-11-07T19:58:48.845Z,21.85
2017-11-07T20:01:16.287Z,21.00
2017-11-07T20:03:43.748Z,21.20
2017-11-07T20:06:11.189Z,21.67
2017-11-07T20:08:38.882Z,19.40
2017-11-07T20:11:06.365Z,19.17
2017-11-07T20:13:33.811Z,18.27
2017-11-07T20:16:01.255Z,17.25
2017-11-07T20:18:28.709Z,18.20
2017-11-07T20:20:56.185Z,18.67
2017-11-07T20:23:23.633Z,18.40
2017-11-07T20:25:51.073Z,17.75
2017-11-07T20:28:18.577Z,17.73
2017-11-07T20:30:46.139Z,17.00
2017-11-07T20:33:13.695Z,17.13
2017-11-07T20:35:41.250Z,17.10
2017-11-07T20:38:08.711Z,17.33
2017-11-07T20:40:36.264Z,17.13
2017-11-07T20:43:03.714Z,15.80
2017-11-07T20:45:31.154Z,16.37
2017-11-07T20:47:58.584Z,15.93
2017-11-07T20:50:26.791Z,15.75
2017-11-07T20:52:54.344Z,15.20
2017-11-07T20:55:21.836Z,14.68
2017-11-07T20:57:49.289Z,16.10
2017-11-07T21:00:17.131Z,14.90
2017-11-07T21:02:44.588Z,15.77
2017-11-07T21:05:12.010Z,14.48
2017-11-07T21:07:39.450Z,13.27
2017-11-07T21:10:06.887Z,12.55
2017-11-07T21:12:34.417Z,13.60
2017-11-07T21:15:01.846Z,13.73
2017-11-07T21:17:29.303Z,12.55
2017-11-07T21:19:56.739Z,13.57
2017-11-07T21:22:25.014Z,13.10
2017-11-07T21:24:53.225Z,12.50
2017-11-07T21:27:20.656Z,13.60
2017-11-07T21:29:48.183Z,12.13
2017-11-07T21:32:15.699Z,11.50
2017-11-07T21:34:49.728Z,12.20
2017-11-07T21:37:17.284Z,12.70
2017-11-07T21:39:44.712Z,12.57
2017-11-07T21:42:12.190Z,11.65
2017-11-07T21:44:39.629Z,11.30
2017-11-07T21:47:07.220Z,12.65
2017-11-07T21:49:34.659Z,12.15
2017-11-07T21:52:02.090Z,13.20
2017-11-07T21:54:29.586Z,12.15
2017-11-07T21:56:57.048Z,13.07
2017-11-07T21:59:24.596Z,12.70
2017-11-07T22:01:52.034Z,11.40
2017-11-07T22:04:19.516Z,11.45
2017-11-07T22:06:46.950Z,11.67
2017-11-07T22:09:14.402Z,11.77
2017-11-07T22:11:41.883Z,10.98
2017-11-07T22:14:09.311Z,11.20
2017-11-07T22:16:53.454Z,12.05
2017-11-07T22:19:20.892Z,11.12
2017-11-07T22:21:50.016Z,11.80
2017-11-07T22:24:17.486Z,11.63
2017-11-07T22:26:45.702Z,10.75
2017-11-07T22:29:14.837Z,11.73
2017-11-07T22:31:42.275Z,11.20
2017-11-07T22:34:09.706Z,9.55
2017-11-07T22:36:37.139Z,11.45
2017-11-07T22:39:04.587Z,10.48
2017-11-07T22:41:32.033Z,10.60
2017-11-07T22:43:59.480Z,10.60
2017-11-07T22:46:26.940Z,11.18
2017-11-07T22:48:54.378Z,10.88
2017-11-07T22:51:21.834Z,10.02
2017-11-07T22:53:49.322Z,10.03
2017-11-07T22:56:16.747Z,10.23
2017-11-07T22:58:44.184Z,9.60
2017-11-07T23:01:12.413Z,10.57
2017-11-07T23:03:39.860Z,10.63
2017-11-07T23:06:07.327Z,9.95
2017-11-07T23:08:34.779Z,9.50
2017-11-07T23:11:02.238Z,9.98
2017-11-07T23:13:29.687Z,10.17
2017-11-07T23:15:57.119Z,10.65
2017-11-07T23:18:24.554Z,10.40
2017-11-07T23:20:52.764Z,10.25
2017-11-07T23:23:20.234Z,10.75
2017-11-07T23:25:47.750Z,9.40
2017-11-07T23:28:15.180Z,9.82
2017-11-07T23:30:43.414Z,9.13
2017-11-07T23:33:10.884Z,10.00
2017-11-07T23:35:38.341Z,10.20
2017-11-07T23:38:05.774Z,9.88
2017-11-07T23:40:33.207Z,9.73
2017-11-07T23:43:00.651Z,9.27
2017-11-07T23:45:28.158Z,9.52
2017-11-07T23:47:55.611Z,9.90
2017-11-07T23:50:24.979Z,10.63
2017-11-07T23:52:52.471Z,10.30
2017-11-07T23:55:20.028Z,10.30
2017-11-07T23:57:47.491Z,10.27
